sensor_id;sensor_type;location;lat;lon;timestamp;P1;durP1;ratioP1;P2;durP2;ratioP2
4704;SDS011;2366;51.332;6.610;2023-03-05T00:00:42;7.73;;;2.83;;
4704;SDS011;2366;51.332;6.610;2023-03-05T00:03:07;7.50;;;3.10;;
4704;SDS011;2366;51.332;6.610;2023-03-05T00:05:32;12.40;;;2.17;;
4704;SDS011;2366;51.332;6.610;2023-03-05T00:07:58;6.40;;;2.60;;
4704;SDS011;2366;51.332;6.610;2023-03-05T00:10:24;10.10;;;3.37;;
4704;SDS011;2366;51.332;6.610;2023-03-05T00:12:49;14.33;;;4.23;;
4704;SDS011;2366;51.332;6.610;2023-03-05T00:15:15;18.97;;;2.70;;
4704;SDS011;2366;51.332;6.610;2023-03-05T00:17:40;8.70;;;2.07;;
4704;SDS011;2366;51.332;6.610;2023-03-05T00:20:06;11.80;;;2.87;;
4704;SDS011;2366;51.332;6.610;2023-03-05T00:22:33;10.52;;;2.35;;
4704;SDS011;2366;51.332;6.610;2023-03-05T00:24:59;8.88;;;2.60;;
4704;SDS011;2366;51.332;6.610;2023-03-05T00:27:25;5.10;;;2.13;;
4704;SDS011;2366;51.332;6.610;2023-03-05T00:29:50;11.93;;;2.20;;
4704;SDS011;2366;51.332;6.610;2023-03-05T00:32:15;23.33;;;4.00;;
4704;SDS011;2366;51.332;6.610;2023-03-05T00:34:41;6.53;;;3.13;;
4704;SDS011;2366;51.332;6.610;2023-03-05T00:37:06;5.97;;;1.83;;
4704;SDS011;2366;51.332;6.610;2023-03-05T00:39:31;4.50;;;2.87;;
4704;SDS011;2366;51.332;6.610;2023-03-05T00:41:57;9.60;;;2.40;;
4704;SDS011;2366;51.332;6.610;2023-03-05T00:44:23;7.30;;;1.90;;
4704;SDS011;2366;51.332;6.610;2023-03-05T00:46:49;12.38;;;2.85;;
4704;SDS011;2366;51.332;6.610;2023-03-05T00:49:14;13.77;;;2.57;;
4704;SDS011;2366;51.332;6.610;2023-03-05T00:51:40;11.07;;;2.00;;
4704;SDS011;2366;51.332;6.610;2023-03-05T00:54:06;7.63;;;2.20;;
4704;SDS011;2366;51.332;6.610;2023-03-05T00:56:31;10.57;;;2.40;;
4704;SDS011;2366;51.332;6.610;2023-03-05T00:58:57;8.23;;;2.70;;
4704;SDS011;2366;51.332;6.610;2023-03-05T01:01:23;9.60;;;2.63;;
4704;SDS011;2366;51.332;6.610;2023-03-05T01:03:48;13.20;;;2.90;;
4704;SDS011;2366;51.332;6.610;2023-03-05T01:06:14;7.13;;;2.40;;
4704;SDS011;2366;51.332;6.610;2023-03-05T01:08:43;9.73;;;2.25;;
4704;SDS011;2366;51.332;6.610;2023-03-05T01:11:10;9.93;;;1.77;;
4704;SDS011;2366;51.332;6.610;2023-03-05T01:13:35;7.28;;;2.53;;
4704;SDS011;2366;51.332;6.610;2023-03-05T01:16:01;7.70;;;2.73;;
4704;SDS011;2366;51.332;6.610;2023-03-05T01:18:27;9.30;;;2.20;;
4704;SDS011;2366;51.332;6.610;2023-03-05T01:20:52;7.30;;;1.87;;
4704;SDS011;2366;51.332;6.610;2023-03-05T01:23:18;3.80;;;2.07;;
4704;SDS011;2366;51.332;6.610;2023-03-05T01:25:44;5.97;;;1.70;;
4704;SDS011;2366;51.332;6.610;2023-03-05T01:28:10;5.23;;;2.33;;
4704;SDS011;2366;51.332;6.610;2023-03-05T01:30:35;6.73;;;1.77;;
4704;SDS011;2366;51.332;6.610;2023-03-05T01:33:01;11.03;;;2.93;;
4704;SDS011;2366;51.332;6.610;2023-03-05T01:35:26;5.80;;;2.20;;
4704;SDS011;2366;51.332;6.610;2023-03-05T01:37:52;6.17;;;2.90;;
4704;SDS011;2366;51.332;6.610;2023-03-05T01:40:19;12.23;;;3.20;;
4704;SDS011;2366;51.332;6.610;2023-03-05T01:42:48;11.82;;;3.28;;
4704;SDS011;2366;51.332;6.610;2023-03-05T01:45:22;10.07;;;3.22;;
4704;SDS011;2366;51.332;6.610;2023-03-05T01:47:47;7.70;;;2.63;;
4704;SDS011;2366;51.332;6.610;2023-03-05T01:50:15;10.57;;;2.60;;
4704;SDS011;2366;51.332;6.610;2023-03-05T01:52:48;9.45;;;2.65;;
4704;SDS011;2366;51.332;6.610;2023-03-05T01:55:18;9.40;;;3.15;;
4704;SDS011;2366;51.332;6.610;2023-03-05T01:58:05;7.80;;;2.20;;
4704;SDS011;2366;51.332;6.610;2023-03-05T02:00:35;12.07;;;3.30;;
4704;SDS011;2366;51.332;6.610;2023-03-05T02:03:08;16.88;;;3.67;;
4704;SDS011;2366;51.332;6.610;2023-03-05T02:05:35;11.27;;;3.55;;
4704;SDS011;2366;51.332;6.610;2023-03-05T02:08:04;15.73;;;2.90;;
4704;SDS011;2366;51.332;6.610;2023-03-05T02:10:33;11.15;;;3.60;;
4704;SDS011;2366;51.332;6.610;2023-03-05T02:13:09;11.57;;;2.97;;
4704;SDS011;2366;51.332;6.610;2023-03-05T02:15:37;11.75;;;2.97;;
4704;SDS011;2366;51.332;6.610;2023-03-05T02:18:03;8.97;;;2.43;;
4704;SDS011;2366;51.332;6.610;2023-03-05T02:20:41;10.80;;;3.10;;
4704;SDS011;2366;51.332;6.610;2023-03-05T02:23:11;15.40;;;3.30;;
4704;SDS011;2366;51.332;6.610;2023-03-05T02:25:37;8.48;;;3.35;;
4704;SDS011;2366;51.332;6.610;2023-03-05T02:28:17;12.70;;;2.87;;
4704;SDS011;2366;51.332;6.610;2023-03-05T02:30:49;7.28;;;2.35;;
4704;SDS011;2366;51.332;6.610;2023-03-05T02:33:15;15.97;;;3.03;;
4704;SDS011;2366;51.332;6.610;2023-03-05T02:35:41;15.95;;;3.28;;
4704;SDS011;2366;51.332;6.610;2023-03-05T02:38:08;11.13;;;2.80;;
4704;SDS011;2366;51.332;6.610;2023-03-05T02:40:34;15.27;;;3.20;;
4704;SDS011;2366;51.332;6.610;2023-03-05T02:43:00;12.20;;;3.63;;
4704;SDS011;2366;51.332;6.610;2023-03-05T02:45:25;7.00;;;2.60;;
4704;SDS011;2366;51.332;6.610;2023-03-05T02:47:50;9.10;;;3.50;;
4704;SDS011;2366;51.332;6.610;2023-03-05T02:50:16;9.57;;;2.33;;
4704;SDS011;2366;51.332;6.610;2023-03-05T02:52:41;7.43;;;3.23;;
4704;SDS011;2366;51.332;6.610;2023-03-05T02:55:07;5.37;;;2.30;;
4704;SDS011;2366;51.332;6.610;2023-03-05T02:57:33;9.82;;;2.65;;
4704;SDS011;2366;51.332;6.610;2023-03-05T02:59:58;5.50;;;2.40;;
4704;SDS011;2366;51.332;6.610;2023-03-05T03:02:23;16.00;;;3.13;;
4704;SDS011;2366;51.332;6.610;2023-03-05T03:04:49;5.90;;;2.03;;
4704;SDS011;2366;51.332;6.610;2023-03-05T03:07:14;6.93;;;1.90;;
4704;SDS011;2366;51.332;6.610;2023-03-05T03:09:40;6.47;;;2.30;;
4704;SDS011;2366;51.332;6.610;2023-03-05T03:12:07;18.13;;;2.80;;
4704;SDS011;2366;51.332;6.610;2023-03-05T03:14:34;10.93;;;3.83;;
4704;SDS011;2366;51.332;6.610;2023-03-05T03:17:03;9.82;;;2.03;;
4704;SDS011;2366;51.332;6.610;2023-03-05T03:19:30;8.45;;;2.17;;
4704;SDS011;2366;51.332;6.610;2023-03-05T03:21:55;11.50;;;2.70;;
4704;SDS011;2366;51.332;6.610;2023-03-05T03:24:20;7.83;;;2.50;;
4704;SDS011;2366;51.332;6.610;2023-03-05T03:26:46;17.97;;;2.67;;
4704;SDS011;2366;51.332;6.610;2023-03-05T03:29:11;16.57;;;2.67;;
4704;SDS011;2366;51.332;6.610;2023-03-05T03:31:37;5.47;;;2.20;;
4704;SDS011;2366;51.332;6.610;2023-03-05T03:34:05;13.07;;;2.63;;
4704;SDS011;2366;51.332;6.610;2023-03-05T03:36:30;13.70;;;2.73;;
4704;SDS011;2366;51.332;6.610;2023-03-05T03:38:56;13.37;;;2.73;;
4704;SDS011;2366;51.332;6.610;2023-03-05T03:41:21;12.50;;;4.30;;
4704;SDS011;2366;51.332;6.610;2023-03-05T03:43:47;4.10;;;1.87;;
4704;SDS011;2366;51.332;6.610;2023-03-05T03:46:12;9.27;;;3.73;;
4704;SDS011;2366;51.332;6.610;2023-03-05T03:48:38;10.70;;;2.43;;
4704;SDS011;2366;51.332;6.610;2023-03-05T03:51:04;8.83;;;2.77;;
4704;SDS011;2366;51.332;6.610;2023-03-05T03:53:30;12.70;;;3.63;;
4704;SDS011;2366;51.332;6.610;2023-03-05T03:55:58;5.70;;;2.57;;
4704;SDS011;2366;51.332;6.610;2023-03-05T03:58:24;15.18;;;2.70;;
4704;SDS011;2366;51.332;6.610;2023-03-05T04:00:50;9.63;;;2.28;;
4704;SDS011;2366;51.332;6.610;2023-03-05T04:03:15;10.63;;;2.20;;
4704;SDS011;2366;51.332;6.610;2023-03-05T04:05:41;9.00;;;4.23;;
4704;SDS011;2366;51.332;6.610;2023-03-05T04:08:06;9.90;;;3.67;;
4704;SDS011;2366;51.332;6.610;2023-03-05T04:10:36;6.65;;;2.25;;
4704;SDS011;2366;51.332;6.610;2023-03-05T04:13:02;5.88;;;2.40;;
4704;SDS011;2366;51.332;6.610;2023-03-05T04:15:28;5.23;;;2.27;;
4704;SDS011;2366;51.332;6.610;2023-03-05T04:17:53;18.03;;;3.63;;
4704;SDS011;2366;51.332;6.610;2023-03-05T04:20:19;5.93;;;2.13;;
4704;SDS011;2366;51.332;6.610;2023-03-05T04:22:44;7.30;;;2.83;;
4704;SDS011;2366;51.332;6.610;2023-03-05T04:25:09;22.77;;;2.90;;
4704;SDS011;2366;51.332;6.610;2023-03-05T04:27:35;9.80;;;2.80;;
4704;SDS011;2366;51.332;6.610;2023-03-05T04:30:02;6.07;;;2.30;;
4704;SDS011;2366;51.332;6.610;2023-03-05T04:32:28;16.95;;;3.97;;
4704;SDS011;2366;51.332;6.610;2023-03-05T04:34:54;10.03;;;2.10;;
4704;SDS011;2366;51.332;6.610;2023-03-05T04:37:20;12.05;;;3.83;;
4704;SDS011;2366;51.332;6.610;2023-03-05T04:39:45;11.33;;;2.67;;
4704;SDS011;2366;51.332;6.610;2023-03-05T04:42:11;11.97;;;3.07;;
4704;SDS011;2366;51.332;6.610;2023-03-05T04:44:36;8.10;;;3.27;;
4704;SDS011;2366;51.332;6.610;2023-03-05T04:47:02;15.47;;;4.37;;
4704;SDS011;2366;51.332;6.610;2023-03-05T04:49:27;16.40;;;2.90;;
4704;SDS011;2366;51.332;6.610;2023-03-05T04:51:53;6.47;;;2.70;;
4704;SDS011;2366;51.332;6.610;2023-03-05T04:54:18;8.30;;;2.90;;
4704;SDS011;2366;51.332;6.610;2023-03-05T04:56:44;11.13;;;3.60;;
4704;SDS011;2366;51.332;6.610;2023-03-05T04:59:09;7.73;;;2.73;;
4704;SDS011;2366;51.332;6.610;2023-03-05T05:01:35;9.60;;;3.17;;
4704;SDS011;2366;51.332;6.610;2023-03-05T05:04:01;8.75;;;3.35;;
4704;SDS011;2366;51.332;6.610;2023-03-05T05:06:26;6.63;;;2.93;;
4704;SDS011;2366;51.332;6.610;2023-03-05T05:08:51;7.10;;;2.77;;
4704;SDS011;2366;51.332;6.610;2023-03-05T05:11:17;16.30;;;3.23;;
4704;SDS011;2366;51.332;6.610;2023-03-05T05:13:42;11.57;;;2.97;;
4704;SDS011;2366;51.332;6.610;2023-03-05T05:16:08;11.63;;;2.80;;
4704;SDS011;2366;51.332;6.610;2023-03-05T05:18:33;7.83;;;3.43;;
4704;SDS011;2366;51.332;6.610;2023-03-05T05:20:59;10.30;;;3.03;;
4704;SDS011;2366;51.332;6.610;2023-03-05T05:23:24;6.37;;;2.23;;
4704;SDS011;2366;51.332;6.610;2023-03-05T05:25:59;10.30;;;2.57;;
4704;SDS011;2366;51.332;6.610;2023-03-05T05:28:26;9.32;;;3.00;;
4704;SDS011;2366;51.332;6.610;2023-03-05T05:30:52;8.80;;;3.10;;
4704;SDS011;2366;51.332;6.610;2023-03-05T05:33:17;6.20;;;2.60;;
4704;SDS011;2366;51.332;6.610;2023-03-05T05:35:43;9.00;;;3.30;;
4704;SDS011;2366;51.332;6.610;2023-03-05T05:38:08;8.53;;;3.10;;
4704;SDS011;2366;51.332;6.610;2023-03-05T05:40:33;9.77;;;4.87;;
4704;SDS011;2366;51.332;6.610;2023-03-05T05:42:59;10.53;;;2.57;;
4704;SDS011;2366;51.332;6.610;2023-03-05T05:45:24;7.97;;;3.47;;
4704;SDS011;2366;51.332;6.610;2023-03-05T05:47:50;11.97;;;3.60;;
4704;SDS011;2366;51.332;6.610;2023-03-05T05:50:15;16.63;;;3.27;;
4704;SDS011;2366;51.332;6.610;2023-03-05T05:52:41;9.65;;;5.45;;
4704;SDS011;2366;51.332;6.610;2023-03-05T05:55:07;6.63;;;3.47;;
4704;SDS011;2366;51.332;6.610;2023-03-05T05:57:33;9.18;;;3.60;;
4704;SDS011;2366;51.332;6.610;2023-03-05T05:59:59;4.60;;;4.00;;
4704;SDS011;2366;51.332;6.610;2023-03-05T06:02:24;11.87;;;3.90;;
4704;SDS011;2366;51.332;6.610;2023-03-05T06:04:51;8.23;;;3.78;;
4704;SDS011;2366;51.332;6.610;2023-03-05T06:07:17;8.93;;;3.50;;
4704;SDS011;2366;51.332;6.610;2023-03-05T06:09:42;5.83;;;3.20;;
4704;SDS011;2366;51.332;6.610;2023-03-05T06:12:07;9.60;;;3.50;;
4704;SDS011;2366;51.332;6.610;2023-03-05T06:14:33;14.27;;;4.13;;
4704;SDS011;2366;51.332;6.610;2023-03-05T06:16:58;4.73;;;2.07;;
4704;SDS011;2366;51.332;6.610;2023-03-05T06:19:24;9.17;;;3.57;;
4704;SDS011;2366;51.332;6.610;2023-03-05T06:21:49;8.23;;;3.97;;
4704;SDS011;2366;51.332;6.610;2023-03-05T06:24:14;11.00;;;4.93;;
4704;SDS011;2366;51.332;6.610;2023-03-05T06:26:40;8.17;;;3.57;;
4704;SDS011;2366;51.332;6.610;2023-03-05T06:29:05;14.67;;;4.17;;
4704;SDS011;2366;51.332;6.610;2023-03-05T06:31:31;8.03;;;3.27;;
4704;SDS011;2366;51.332;6.610;2023-03-05T06:33:58;10.53;;;3.80;;
4704;SDS011;2366;51.332;6.610;2023-03-05T06:36:27;8.32;;;3.80;;
4704;SDS011;2366;51.332;6.610;2023-03-05T06:38:54;10.77;;;5.03;;
4704;SDS011;2366;51.332;6.610;2023-03-05T06:41:21;24.85;;;5.85;;
4704;SDS011;2366;51.332;6.610;2023-03-05T06:43:49;9.07;;;3.50;;
4704;SDS011;2366;51.332;6.610;2023-03-05T06:46:16;6.17;;;4.10;;
4704;SDS011;2366;51.332;6.610;2023-03-05T06:48:44;11.60;;;3.47;;
4704;SDS011;2366;51.332;6.610;2023-03-05T06:51:17;16.23;;;3.47;;
4704;SDS011;2366;51.332;6.610;2023-03-05T06:53:44;9.95;;;3.75;;
4704;SDS011;2366;51.332;6.610;2023-03-05T06:56:10;26.67;;;4.63;;
4704;SDS011;2366;51.332;6.610;2023-03-05T06:58:38;7.40;;;3.92;;
4704;SDS011;2366;51.332;6.610;2023-03-05T07:01:05;10.80;;;4.00;;
4704;SDS011;2366;51.332;6.610;2023-03-05T07:03:31;8.98;;;3.88;;
4704;SDS011;2366;51.332;6.610;2023-03-05T07:06:01;13.02;;;3.92;;
4704;SDS011;2366;51.332;6.610;2023-03-05T07:08:28;12.93;;;3.70;;
4704;SDS011;2366;51.332;6.610;2023-03-05T07:10:53;8.90;;;3.80;;
4704;SDS011;2366;51.332;6.610;2023-03-05T07:13:18;7.33;;;3.67;;
4704;SDS011;2366;51.332;6.610;2023-03-05T07:15:44;28.70;;;4.63;;
4704;SDS011;2366;51.332;6.610;2023-03-05T07:18:09;15.53;;;4.90;;
4704;SDS011;2366;51.332;6.610;2023-03-05T07:20:35;10.97;;;4.63;;
4704;SDS011;2366;51.332;6.610;2023-03-05T07:23:01;9.05;;;3.95;;
4704;SDS011;2366;51.332;6.610;2023-03-05T07:25:27;11.48;;;3.97;;
4704;SDS011;2366;51.332;6.610;2023-03-05T07:27:53;13.43;;;4.23;;
4704;SDS011;2366;51.332;6.610;2023-03-05T07:30:19;8.23;;;3.40;;
4704;SDS011;2366;51.332;6.610;2023-03-05T07:32:44;12.30;;;4.20;;
4704;SDS011;2366;51.332;6.610;2023-03-05T07:35:10;13.07;;;3.63;;
4704;SDS011;2366;51.332;6.610;2023-03-05T07:37:35;16.67;;;5.13;;
4704;SDS011;2366;51.332;6.610;2023-03-05T07:40:01;10.00;;;4.27;;
4704;SDS011;2366;51.332;6.610;2023-03-05T07:42:28;15.70;;;4.88;;
4704;SDS011;2366;51.332;6.610;2023-03-05T07:44:53;8.53;;;3.97;;
4704;SDS011;2366;51.332;6.610;2023-03-05T07:47:19;22.57;;;3.53;;
4704;SDS011;2366;51.332;6.610;2023-03-05T07:49:44;8.03;;;3.43;;
4704;SDS011;2366;51.332;6.610;2023-03-05T07:52:10;11.20;;;4.60;;
4704;SDS011;2366;51.332;6.610;2023-03-05T07:54:37;8.27;;;3.40;;
4704;SDS011;2366;51.332;6.610;2023-03-05T07:57:03;10.25;;;3.72;;
4704;SDS011;2366;51.332;6.610;2023-03-05T07:59:29;14.20;;;3.97;;
4704;SDS011;2366;51.332;6.610;2023-03-05T08:01:55;13.97;;;3.80;;
4704;SDS011;2366;51.332;6.610;2023-03-05T08:04:21;8.80;;;4.00;;
4704;SDS011;2366;51.332;6.610;2023-03-05T08:06:46;15.87;;;4.83;;
4704;SDS011;2366;51.332;6.610;2023-03-05T08:09:13;12.70;;;3.92;;
4704;SDS011;2366;51.332;6.610;2023-03-05T08:11:39;12.57;;;3.70;;
4704;SDS011;2366;51.332;6.610;2023-03-05T08:14:05;14.47;;;4.60;;
4704;SDS011;2366;51.332;6.610;2023-03-05T08:16:30;9.67;;;4.50;;
4704;SDS011;2366;51.332;6.610;2023-03-05T08:18:56;14.50;;;4.23;;
4704;SDS011;2366;51.332;6.610;2023-03-05T08:21:23;8.52;;;3.75;;
4704;SDS011;2366;51.332;6.610;2023-03-05T08:23:51;9.43;;;3.95;;
4704;SDS011;2366;51.332;6.610;2023-03-05T08:26:18;21.87;;;4.47;;
4704;SDS011;2366;51.332;6.610;2023-03-05T08:28:45;11.63;;;3.97;;
4704;SDS011;2366;51.332;6.610;2023-03-05T08:31:11;19.63;;;6.20;;
4704;SDS011;2366;51.332;6.610;2023-03-05T08:33:37;13.65;;;4.88;;
4704;SDS011;2366;51.332;6.610;2023-03-05T08:36:03;11.15;;;4.35;;
4704;SDS011;2366;51.332;6.610;2023-03-05T08:38:29;10.90;;;4.00;;
4704;SDS011;2366;51.332;6.610;2023-03-05T08:40:54;8.47;;;3.57;;
4704;SDS011;2366;51.332;6.610;2023-03-05T08:43:20;7.40;;;3.70;;
4704;SDS011;2366;51.332;6.610;2023-03-05T08:45:45;8.77;;;4.43;;
4704;SDS011;2366;51.332;6.610;2023-03-05T08:48:11;16.35;;;4.18;;
4704;SDS011;2366;51.332;6.610;2023-03-05T08:50:37;13.90;;;4.07;;
4704;SDS011;2366;51.332;6.610;2023-03-05T08:53:02;7.43;;;3.30;;
4704;SDS011;2366;51.332;6.610;2023-03-05T08:55:28;6.00;;;2.70;;
4704;SDS011;2366;51.332;6.610;2023-03-05T08:57:53;9.43;;;4.03;;
4704;SDS011;2366;51.332;6.610;2023-03-05T09:00:18;6.30;;;2.77;;
4704;SDS011;2366;51.332;6.610;2023-03-05T09:02:45;6.18;;;3.47;;
4704;SDS011;2366;51.332;6.610;2023-03-05T09:05:10;7.20;;;4.27;;
4704;SDS011;2366;51.332;6.610;2023-03-05T09:07:36;11.43;;;3.93;;
4704;SDS011;2366;51.332;6.610;2023-03-05T09:10:02;9.80;;;3.10;;
4704;SDS011;2366;51.332;6.610;2023-03-05T09:12:28;5.95;;;3.72;;
4704;SDS011;2366;51.332;6.610;2023-03-05T09:14:54;5.63;;;3.60;;
4704;SDS011;2366;51.332;6.610;2023-03-05T09:17:21;5.20;;;2.63;;
4704;SDS011;2366;51.332;6.610;2023-03-05T09:19:47;8.00;;;3.00;;
4704;SDS011;2366;51.332;6.610;2023-03-05T09:22:12;2.87;;;2.50;;
4704;SDS011;2366;51.332;6.610;2023-03-05T09:24:37;3.03;;;2.57;;
4704;SDS011;2366;51.332;6.610;2023-03-05T09:27:03;10.63;;;2.73;;
4704;SDS011;2366;51.332;6.610;2023-03-05T09:29:28;11.83;;;2.80;;
4704;SDS011;2366;51.332;6.610;2023-03-05T09:31:55;7.20;;;2.45;;
4704;SDS011;2366;51.332;6.610;2023-03-05T09:34:20;8.63;;;3.10;;
4704;SDS011;2366;51.332;6.610;2023-03-05T09:36:46;7.97;;;3.10;;
4704;SDS011;2366;51.332;6.610;2023-03-05T09:39:12;13.77;;;3.40;;
4704;SDS011;2366;51.332;6.610;2023-03-05T09:44:20;3.40;;;2.45;;
4704;SDS011;2366;51.332;6.610;2023-03-05T09:52:24;13.40;;;3.92;;
4704;SDS011;2366;51.332;6.610;2023-03-05T09:54:58;4.00;;;2.53;;
4704;SDS011;2366;51.332;6.610;2023-03-05T09:57:43;4.90;;;4.40;;
4704;SDS011;2366;51.332;6.610;2023-03-05T10:00:22;5.93;;;3.15;;
4704;SDS011;2366;51.332;6.610;2023-03-05T10:02:58;12.10;;;5.00;;
4704;SDS011;2366;51.332;6.610;2023-03-05T10:08:20;3.00;;;2.53;;
4704;SDS011;2366;51.332;6.610;2023-03-05T10:10:50;5.45;;;2.70;;
4704;SDS011;2366;51.332;6.610;2023-03-05T10:13:29;5.40;;;2.60;;
4704;SDS011;2366;51.332;6.610;2023-03-05T10:19:05;3.88;;;2.95;;
4704;SDS011;2366;51.332;6.610;2023-03-05T10:21:51;3.45;;;2.30;;
4704;SDS011;2366;51.332;6.610;2023-03-05T10:24:24;7.97;;;3.08;;
4704;SDS011;2366;51.332;6.610;2023-03-05T10:27:10;4.20;;;3.05;;
4704;SDS011;2366;51.332;6.610;2023-03-05T10:29:54;6.88;;;3.90;;
4704;SDS011;2366;51.332;6.610;2023-03-05T10:35:11;10.43;;;5.05;;
4704;SDS011;2366;51.332;6.610;2023-03-05T10:38:02;6.47;;;3.67;;
4704;SDS011;2366;51.332;6.610;2023-03-05T10:46:11;11.35;;;3.70;;
4704;SDS011;2366;51.332;6.610;2023-03-05T10:48:54;5.22;;;3.38;;
4704;SDS011;2366;51.332;6.610;2023-03-05T10:51:37;3.92;;;3.58;;
4704;SDS011;2366;51.332;6.610;2023-03-05T10:56:33;7.33;;;4.67;;
4704;SDS011;2366;51.332;6.610;2023-03-05T10:58:58;4.63;;;3.83;;
4704;SDS011;2366;51.332;6.610;2023-03-05T11:01:25;4.07;;;3.60;;
4704;SDS011;2366;51.332;6.610;2023-03-05T11:04:24;7.18;;;4.28;;
4704;SDS011;2366;51.332;6.610;2023-03-05T11:06:50;14.98;;;7.25;;
4704;SDS011;2366;51.332;6.610;2023-03-05T11:09:17;5.57;;;4.97;;
4704;SDS011;2366;51.332;6.610;2023-03-05T11:12:05;6.85;;;4.05;;
4704;SDS011;2366;51.332;6.610;2023-03-05T11:14:34;4.80;;;4.40;;
4704;SDS011;2366;51.332;6.610;2023-03-05T11:17:03;6.00;;;4.50;;
4704;SDS011;2366;51.332;6.610;2023-03-05T11:23:05;7.50;;;4.78;;
4704;SDS011;2366;51.332;6.610;2023-03-05T11:25:53;3.83;;;3.53;;
4704;SDS011;2366;51.332;6.610;2023-03-05T11:28:20;4.45;;;3.20;;
4704;SDS011;2366;51.332;6.610;2023-03-05T11:31:22;3.90;;;3.22;;
4704;SDS011;2366;51.332;6.610;2023-03-05T11:33:39;3.65;;;3.33;;
4704;SDS011;2366;51.332;6.610;2023-03-05T11:36:24;4.45;;;3.38;;
4704;SDS011;2366;51.332;6.610;2023-03-05T11:41:36;5.25;;;3.45;;
4704;SDS011;2366;51.332;6.610;2023-03-05T11:44:14;5.35;;;3.92;;
4704;SDS011;2366;51.332;6.610;2023-03-05T11:46:43;6.07;;;3.47;;
4704;SDS011;2366;51.332;6.610;2023-03-05T11:49:17;8.30;;;3.50;;
4704;SDS011;2366;51.332;6.610;2023-03-05T11:54:21;7.13;;;3.78;;
4704;SDS011;2366;51.332;6.610;2023-03-05T11:56:50;3.33;;;3.03;;
4704;SDS011;2366;51.332;6.610;2023-03-05T11:59:21;4.70;;;3.85;;
4704;SDS011;2366;51.332;6.610;2023-03-05T12:01:52;6.32;;;4.43;;
4704;SDS011;2366;51.332;6.610;2023-03-05T12:04:19;4.50;;;4.10;;
4704;SDS011;2366;51.332;6.610;2023-03-05T12:06:56;4.82;;;3.70;;
4704;SDS011;2366;51.332;6.610;2023-03-05T12:09:30;4.85;;;4.10;;
4704;SDS011;2366;51.332;6.610;2023-03-05T12:12:12;5.47;;;3.25;;
4704;SDS011;2366;51.332;6.610;2023-03-05T12:15:02;8.50;;;4.05;;
4704;SDS011;2366;51.332;6.610;2023-03-05T12:18:03;7.18;;;4.88;;
4704;SDS011;2366;51.332;6.610;2023-03-05T12:20:48;5.50;;;3.58;;
4704;SDS011;2366;51.332;6.610;2023-03-05T12:23:20;10.85;;;2.97;;
4704;SDS011;2366;51.332;6.610;2023-03-05T12:25:48;12.50;;;7.47;;
4704;SDS011;2366;51.332;6.610;2023-03-05T12:28:16;8.13;;;4.30;;
4704;SDS011;2366;51.332;6.610;2023-03-05T12:31:02;6.00;;;3.92;;
4704;SDS011;2366;51.332;6.610;2023-03-05T12:36:31;3.97;;;3.00;;
4704;SDS011;2366;51.332;6.610;2023-03-05T12:38:57;2.40;;;2.20;;
4704;SDS011;2366;51.332;6.610;2023-03-05T12:46:28;4.40;;;2.45;;
4704;SDS011;2366;51.332;6.610;2023-03-05T12:48:56;5.43;;;2.97;;
4704;SDS011;2366;51.332;6.610;2023-03-05T12:51:27;10.50;;;2.65;;
4704;SDS011;2366;51.332;6.610;2023-03-05T12:53:59;5.88;;;3.08;;
4704;SDS011;2366;51.332;6.610;2023-03-05T12:56:53;4.65;;;3.15;;
4704;SDS011;2366;51.332;6.610;2023-03-05T12:59:24;4.40;;;3.40;;
4704;SDS011;2366;51.332;6.610;2023-03-05T13:01:58;6.30;;;3.28;;
4704;SDS011;2366;51.332;6.610;2023-03-05T13:04:31;3.45;;;3.15;;
4704;SDS011;2366;51.332;6.610;2023-03-05T13:07:02;3.15;;;2.83;;
4704;SDS011;2366;51.332;6.610;2023-03-05T13:09:30;3.95;;;3.08;;
4704;SDS011;2366;51.332;6.610;2023-03-05T13:11:59;10.45;;;3.60;;
4704;SDS011;2366;51.332;6.610;2023-03-05T13:17:22;6.30;;;4.57;;
4704;SDS011;2366;51.332;6.610;2023-03-05T13:19:53;7.35;;;5.10;;
4704;SDS011;2366;51.332;6.610;2023-03-05T13:22:19;5.60;;;5.10;;
4704;SDS011;2366;51.332;6.610;2023-03-05T13:24:44;10.83;;;5.40;;
4704;SDS011;2366;51.332;6.610;2023-03-05T13:27:29;7.35;;;6.65;;
4704;SDS011;2366;51.332;6.610;2023-03-05T13:29:56;9.45;;;5.60;;
4704;SDS011;2366;51.332;6.610;2023-03-05T13:32:25;7.40;;;5.10;;
4704;SDS011;2366;51.332;6.610;2023-03-05T13:34:54;6.00;;;4.80;;
4704;SDS011;2366;51.332;6.610;2023-03-05T13:37:40;11.07;;;5.82;;
4704;SDS011;2366;51.332;6.610;2023-03-05T13:40:24;8.88;;;6.95;;
4704;SDS011;2366;51.332;6.610;2023-03-05T13:42:54;6.15;;;5.55;;
4704;SDS011;2366;51.332;6.610;2023-03-05T13:45:32;5.90;;;5.00;;
4704;SDS011;2366;51.332;6.610;2023-03-05T13:47:59;6.70;;;5.87;;
4704;SDS011;2366;51.332;6.610;2023-03-05T13:50:29;9.45;;;5.78;;
4704;SDS011;2366;51.332;6.610;2023-03-05T13:52:55;9.05;;;6.82;;
4704;SDS011;2366;51.332;6.610;2023-03-05T13:55:37;10.27;;;6.85;;
4704;SDS011;2366;51.332;6.610;2023-03-05T13:58:03;8.03;;;7.20;;
4704;SDS011;2366;51.332;6.610;2023-03-05T14:00:35;12.93;;;7.07;;
4704;SDS011;2366;51.332;6.610;2023-03-05T14:03:10;8.52;;;6.93;;
4704;SDS011;2366;51.332;6.610;2023-03-05T14:05:45;10.52;;;7.13;;
4704;SDS011;2366;51.332;6.610;2023-03-05T14:08:24;7.95;;;5.13;;
4704;SDS011;2366;51.332;6.610;2023-03-05T14:10:53;7.50;;;5.55;;
4704;SDS011;2366;51.332;6.610;2023-03-05T14:13:22;11.25;;;8.10;;
4704;SDS011;2366;51.332;6.610;2023-03-05T14:18:37;9.40;;;5.78;;
4704;SDS011;2366;51.332;6.610;2023-03-05T14:21:05;5.30;;;4.80;;
4704;SDS011;2366;51.332;6.610;2023-03-05T14:31:52;8.00;;;5.57;;
4704;SDS011;2366;51.332;6.610;2023-03-05T14:34:31;6.50;;;4.88;;
4704;SDS011;2366;51.332;6.610;2023-03-05T14:36:59;4.97;;;4.03;;
4704;SDS011;2366;51.332;6.610;2023-03-05T14:42:20;8.25;;;4.60;;
4704;SDS011;2366;51.332;6.610;2023-03-05T14:44:49;8.50;;;5.13;;
4704;SDS011;2366;51.332;6.610;2023-03-05T14:47:15;4.27;;;3.63;;
4704;SDS011;2366;51.332;6.610;2023-03-05T14:49:40;5.00;;;4.00;;
4704;SDS011;2366;51.332;6.610;2023-03-05T14:52:06;4.33;;;3.93;;
4704;SDS011;2366;51.332;6.610;2023-03-05T14:54:33;4.47;;;4.00;;
4704;SDS011;2366;51.332;6.610;2023-03-05T14:57:02;4.47;;;2.88;;
4704;SDS011;2366;51.332;6.610;2023-03-05T14:59:28;4.70;;;3.63;;
4704;SDS011;2366;51.332;6.610;2023-03-05T15:01:54;5.70;;;4.47;;
4704;SDS011;2366;51.332;6.610;2023-03-05T15:04:19;5.47;;;3.53;;
4704;SDS011;2366;51.332;6.610;2023-03-05T15:06:45;3.07;;;2.87;;
4704;SDS011;2366;51.332;6.610;2023-03-05T15:09:14;4.22;;;3.40;;
4704;SDS011;2366;51.332;6.610;2023-03-05T15:11:42;4.25;;;3.95;;
4704;SDS011;2366;51.332;6.610;2023-03-05T15:14:08;3.42;;;3.13;;
4704;SDS011;2366;51.332;6.610;2023-03-05T15:16:34;3.60;;;3.10;;
4704;SDS011;2366;51.332;6.610;2023-03-05T15:19:00;7.10;;;3.40;;
4704;SDS011;2366;51.332;6.610;2023-03-05T15:21:27;5.70;;;3.25;;
4704;SDS011;2366;51.332;6.610;2023-03-05T15:23:52;3.73;;;2.70;;
4704;SDS011;2366;51.332;6.610;2023-03-05T15:26:18;5.63;;;3.00;;
4704;SDS011;2366;51.332;6.610;2023-03-05T15:28:43;3.53;;;2.97;;
4704;SDS011;2366;51.332;6.610;2023-03-05T15:31:09;3.30;;;2.40;;
4704;SDS011;2366;51.332;6.610;2023-03-05T15:33:35;2.95;;;2.63;;
4704;SDS011;2366;51.332;6.610;2023-03-05T15:36:01;2.93;;;2.70;;
4704;SDS011;2366;51.332;6.610;2023-03-05T15:38:26;6.70;;;3.40;;
4704;SDS011;2366;51.332;6.610;2023-03-05T15:40:52;9.93;;;3.70;;
4704;SDS011;2366;51.332;6.610;2023-03-05T15:43:17;5.57;;;3.17;;
4704;SDS011;2366;51.332;6.610;2023-03-05T15:45:43;5.70;;;3.40;;
4704;SDS011;2366;51.332;6.610;2023-03-05T15:48:09;5.00;;;4.47;;
4704;SDS011;2366;51.332;6.610;2023-03-05T15:50:35;3.23;;;2.80;;
4704;SDS011;2366;51.332;6.610;2023-03-05T15:53:00;5.53;;;2.80;;
4704;SDS011;2366;51.332;6.610;2023-03-05T15:55:25;6.60;;;3.30;;
4704;SDS011;2366;51.332;6.610;2023-03-05T15:57:51;5.20;;;3.17;;
4704;SDS011;2366;51.332;6.610;2023-03-05T16:00:24;5.17;;;3.10;;
4704;SDS011;2366;51.332;6.610;2023-03-05T16:02:53;10.25;;;3.90;;
4704;SDS011;2366;51.332;6.610;2023-03-05T16:05:18;3.33;;;2.77;;
4704;SDS011;2366;51.332;6.610;2023-03-05T16:07:44;8.10;;;3.30;;
4704;SDS011;2366;51.332;6.610;2023-03-05T16:10:13;3.78;;;3.47;;
4704;SDS011;2366;51.332;6.610;2023-03-05T16:12:44;7.10;;;3.60;;
4704;SDS011;2366;51.332;6.610;2023-03-05T16:15:13;4.32;;;3.35;;